sensor_id;sensor_type;location;lat;lon;timestamp;temperature;humidity
19920;DHT22;10122;50.074;19.920;2024-02-21T00:00:55;7.10;99.90
19920;DHT22;10122;50.074;19.920;2024-02-21T00:03:20;7.10;99.90
19920;DHT22;10122;50.074;19.920;2024-02-21T00:05:46;7.00;99.90
19920;DHT22;10122;50.074;19.920;2024-02-21T00:08:12;7.00;99.90
19920;DHT22;10122;50.074;19.920;2024-02-21T00:10:38;7.00;99.90
19920;DHT22;10122;50.074;19.920;2024-02-21T00:13:03;6.90;99.90
19920;DHT22;10122;50.074;19.920;2024-02-21T00:15:29;6.80;99.90
19920;DHT22;10122;50.074;19.920;2024-02-21T00:17:55;6.80;99.90
19920;DHT22;10122;50.074;19.920;2024-02-21T00:20:20;6.70;99.90
19920;DHT22;10122;50.074;19.920;2024-02-21T00:22:46;6.60;99.90
19920;DHT22;10122;50.074;19.920;2024-02-21T00:25:12;6.60;99.90
19920;DHT22;10122;50.074;19.920;2024-02-21T00:27:38;6.60;99.90
19920;DHT22;10122;50.074;19.920;2024-02-21T00:30:05;6.60;99.90
19920;DHT22;10122;50.074;19.920;2024-02-21T00:32:31;6.70;99.90
19920;DHT22;10122;50.074;19.920;2024-02-21T00:34:59;6.80;99.90
19920;DHT22;10122;50.074;19.920;2024-02-21T00:37:25;6.80;99.90
19920;DHT22;10122;50.074;19.920;2024-02-21T00:39:50;6.90;99.90
19920;DHT22;10122;50.074;19.920;2024-02-21T00:42:16;6.90;99.90
19920;DHT22;10122;50.074;19.920;2024-02-21T00:44:42;7.00;99.90
19920;DHT22;10122;50.074;19.920;2024-02-21T00:47:07;7.10;99.90
19920;DHT22;10122;50.074;19.920;2024-02-21T00:49:33;7.10;99.90
19920;DHT22;10122;50.074;19.920;2024-02-21T00:51:59;7.10;99.90
19920;DHT22;10122;50.074;19.920;2024-02-21T00:54:24;7.00;99.90
19920;DHT22;10122;50.074;19.920;2024-02-21T00:56:50;7.00;99.90
19920;DHT22;10122;50.074;19.920;2024-02-21T00:59:16;6.90;99.90
19920;DHT22;10122;50.074;19.920;2024-02-21T01:01:42;7.00;99.90
19920;DHT22;10122;50.074;19.920;2024-02-21T01:04:11;7.00;99.90
19920;DHT22;10122;50.074;19.920;2024-02-21T01:06:37;7.10;99.90
19920;DHT22;10122;50.074;19.920;2024-02-21T01:09:02;7.10;99.90
19920;DHT22;10122;50.074;19.920;2024-02-21T01:11:28;7.20;99.90
19920;DHT22;10122;50.074;19.920;2024-02-21T01:13:55;7.10;99.90
19920;DHT22;10122;50.074;19.920;2024-02-21T01:16:21;6.90;99.90
19920;DHT22;10122;50.074;19.920;2024-02-21T01:18:47;6.90;99.90
19920;DHT22;10122;50.074;19.920;2024-02-21T01:21:12;7.00;99.90
19920;DHT22;10122;50.074;19.920;2024-02-21T01:23:38;6.90;99.90
19920;DHT22;10122;50.074;19.920;2024-02-21T01:26:04;7.00;99.90
19920;DHT22;10122;50.074;19.920;2024-02-21T01:28:30;7.00;99.90
19920;DHT22;10122;50.074;19.920;2024-02-21T01:30:56;7.00;99.90
19920;DHT22;10122;50.074;19.920;2024-02-21T01:33:22;6.90;99.90
19920;DHT22;10122;50.074;19.920;2024-02-21T01:35:48;6.90;99.90
19920;DHT22;10122;50.074;19.920;2024-02-21T01:38:15;6.90;99.90
19920;DHT22;10122;50.074;19.920;2024-02-21T01:40:40;6.90;99.90
19920;DHT22;10122;50.074;19.920;2024-02-21T01:43:16;7.00;99.90
19920;DHT22;10122;50.074;19.920;2024-02-21T01:45:44;7.00;99.90
19920;DHT22;10122;50.074;19.920;2024-02-21T01:48:12;7.10;99.90
19920;DHT22;10122;50.074;19.920;2024-02-21T01:50:38;7.10;99.90
19920;DHT22;10122;50.074;19.920;2024-02-21T01:53:04;7.20;99.90
19920;DHT22;10122;50.074;19.920;2024-02-21T01:55:31;7.20;99.90
19920;DHT22;10122;50.074;19.920;2024-02-21T01:57:56;7.20;99.90
19920;DHT22;10122;50.074;19.920;2024-02-21T02:00:23;7.10;99.90
19920;DHT22;10122;50.074;19.920;2024-02-21T02:02:49;7.10;99.90
19920;DHT22;10122;50.074;19.920;2024-02-21T02:05:16;7.00;99.90
19920;DHT22;10122;50.074;19.920;2024-02-21T02:07:44;6.90;99.90
19920;DHT22;10122;50.074;19.920;2024-02-21T02:10:09;6.80;99.90
19920;DHT22;10122;50.074;19.920;2024-02-21T02:12:35;6.70;99.90
19920;DHT22;10122;50.074;19.920;2024-02-21T02:15:02;6.60;99.90
19920;DHT22;10122;50.074;19.920;2024-02-21T02:17:31;6.50;99.90
19920;DHT22;10122;50.074;19.920;2024-02-21T02:19:57;6.50;99.90
19920;DHT22;10122;50.074;19.920;2024-02-21T02:22:28;6.50;99.90
19920;DHT22;10122;50.074;19.920;2024-02-21T02:24:54;6.50;99.90
19920;DHT22;10122;50.074;19.920;2024-02-21T02:27:20;6.60;99.90
19920;DHT22;10122;50.074;19.920;2024-02-21T02:29:48;6.60;99.90
19920;DHT22;10122;50.074;19.920;2024-02-21T02:32:14;6.80;99.90
19920;DHT22;10122;50.074;19.920;2024-02-21T02:34:39;6.90;99.90
19920;DHT22;10122;50.074;19.920;2024-02-21T02:37:05;6.90;99.90
19920;DHT22;10122;50.074;19.920;2024-02-21T02:39:31;7.00;99.90
19920;DHT22;10122;50.074;19.920;2024-02-21T02:41:56;7.00;99.90
19920;DHT22;10122;50.074;19.920;2024-02-21T02:44:22;7.10;99.90
19920;DHT22;10122;50.074;19.920;2024-02-21T02:46:48;7.10;99.90
19920;DHT22;10122;50.074;19.920;2024-02-21T02:49:14;7.00;99.90
19920;DHT22;10122;50.074;19.920;2024-02-21T02:51:42;7.00;99.90
19920;DHT22;10122;50.074;19.920;2024-02-21T02:54:09;7.00;99.90
19920;DHT22;10122;50.074;19.920;2024-02-21T02:56:34;6.90;99.90
19920;DHT22;10122;50.074;19.920;2024-02-21T02:59:00;6.90;99.90
19920;DHT22;10122;50.074;19.920;2024-02-21T03:01:26;6.90;99.90
19920;DHT22;10122;50.074;19.920;2024-02-21T03:03:53;6.80;99.90
19920;DHT22;10122;50.074;19.920;2024-02-21T03:06:19;6.80;99.90
19920;DHT22;10122;50.074;19.920;2024-02-21T03:08:45;6.80;99.90
19920;DHT22;10122;50.074;19.920;2024-02-21T03:11:10;6.80;99.90
19920;DHT22;10122;50.074;19.920;2024-02-21T03:13:36;6.70;99.90
19920;DHT22;10122;50.074;19.920;2024-02-21T03:16:02;6.70;99.90
19920;DHT22;10122;50.074;19.920;2024-02-21T03:18:28;6.70;99.90
19920;DHT22;10122;50.074;19.920;2024-02-21T03:20:54;6.70;99.90
19920;DHT22;10122;50.074;19.920;2024-02-21T03:23:19;6.80;99.90
19920;DHT22;10122;50.074;19.920;2024-02-21T03:25:45;6.80;99.90
19920;DHT22;10122;50.074;19.920;2024-02-21T03:28:11;6.80;99.90
19920;DHT22;10122;50.074;19.920;2024-02-21T03:30:37;6.70;99.90
19920;DHT22;10122;50.074;19.920;2024-02-21T03:33:03;6.60;99.90
19920;DHT22;10122;50.074;19.920;2024-02-21T03:35:28;6.60;99.90
19920;DHT22;10122;50.074;19.920;2024-02-21T03:37:54;6.50;99.90
19920;DHT22;10122;50.074;19.920;2024-02-21T03:40:20;6.50;99.90
19920;DHT22;10122;50.074;19.920;2024-02-21T03:42:46;6.60;99.90
19920;DHT22;10122;50.074;19.920;2024-02-21T03:45:11;6.50;99.90
19920;DHT22;10122;50.074;19.920;2024-02-21T03:47:37;6.60;99.90
19920;DHT22;10122;50.074;19.920;2024-02-21T03:50:04;6.50;99.90
19920;DHT22;10122;50.074;19.920;2024-02-21T03:52:30;6.50;99.90
19920;DHT22;10122;50.074;19.920;2024-02-21T03:54:55;6.60;99.90
19920;DHT22;10122;50.074;19.920;2024-02-21T03:57:21;6.70;99.90
19920;DHT22;10122;50.074;19.920;2024-02-21T03:59:50;6.80;99.90
19920;DHT22;10122;50.074;19.920;2024-02-21T04:02:16;6.90;99.90
19920;DHT22;10122;50.074;19.920;2024-02-21T04:04:43;6.90;99.90
19920;DHT22;10122;50.074;19.920;2024-02-21T04:07:13;6.90;99.90
19920;DHT22;10122;50.074;19.920;2024-02-21T04:09:38;7.00;99.90
19920;DHT22;10122;50.074;19.920;2024-02-21T04:12:04;7.00;99.90
19920;DHT22;10122;50.074;19.920;2024-02-21T04:14:30;7.10;99.90
19920;DHT22;10122;50.074;19.920;2024-02-21T04:16:56;7.00;99.90
19920;DHT22;10122;50.074;19.920;2024-02-21T04:19:22;7.00;99.90
19920;DHT22;10122;50.074;19.920;2024-02-21T04:21:48;7.00;99.90
19920;DHT22;10122;50.074;19.920;2024-02-21T04:24:14;7.00;99.90
19920;DHT22;10122;50.074;19.920;2024-02-21T04:26:39;7.00;99.90
19920;DHT22;10122;50.074;19.920;2024-02-21T04:29:06;6.90;99.90
19920;DHT22;10122;50.074;19.920;2024-02-21T04:31:34;6.90;99.90
19920;DHT22;10122;50.074;19.920;2024-02-21T04:34:00;6.90;99.90
19920;DHT22;10122;50.074;19.920;2024-02-21T04:36:26;6.90;99.90
19920;DHT22;10122;50.074;19.920;2024-02-21T04:38:51;6.90;99.90
19920;DHT22;10122;50.074;19.920;2024-02-21T04:41:17;6.80;99.90
19920;DHT22;10122;50.074;19.920;2024-02-21T04:43:43;6.80;99.90
19920;DHT22;10122;50.074;19.920;2024-02-21T04:46:08;6.70;99.90
19920;DHT22;10122;50.074;19.920;2024-02-21T04:48:35;6.60;99.90
19920;DHT22;10122;50.074;19.920;2024-02-21T04:51:01;6.60;99.90
19920;DHT22;10122;50.074;19.920;2024-02-21T04:53:26;6.50;99.90
19920;DHT22;10122;50.074;19.920;2024-02-21T04:55:52;6.50;99.90
19920;DHT22;10122;50.074;19.920;2024-02-21T04:58:17;6.40;99.90
19920;DHT22;10122;50.074;19.920;2024-02-21T05:00:43;6.50;99.90
19920;DHT22;10122;50.074;19.920;2024-02-21T05:03:09;6.50;99.90
19920;DHT22;10122;50.074;19.920;2024-02-21T05:05:34;6.50;99.90
19920;DHT22;10122;50.074;19.920;2024-02-21T05:08:01;6.50;99.90
19920;DHT22;10122;50.074;19.920;2024-02-21T05:10:26;6.50;99.90
19920;DHT22;10122;50.074;19.920;2024-02-21T05:12:52;6.50;99.90
19920;DHT22;10122;50.074;19.920;2024-02-21T05:15:18;6.50;99.90
19920;DHT22;10122;50.074;19.920;2024-02-21T05:17:44;6.50;99.90
19920;DHT22;10122;50.074;19.920;2024-02-21T05:20:10;6.50;99.90
19920;DHT22;10122;50.074;19.920;2024-02-21T05:22:36;6.60;99.90
19920;DHT22;10122;50.074;19.920;2024-02-21T05:25:01;6.60;99.90
19920;DHT22;10122;50.074;19.920;2024-02-21T05:27:27;6.60;99.90
19920;DHT22;10122;50.074;19.920;2024-02-21T05:29:53;6.50;99.90
19920;DHT22;10122;50.074;19.920;2024-02-21T05:32:19;6.50;99.90
19920;DHT22;10122;50.074;19.920;2024-02-21T05:34:48;6.50;99.90
19920;DHT22;10122;50.074;19.920;2024-02-21T05:37:15;6.60;99.90
19920;DHT22;10122;50.074;19.920;2024-02-21T05:39:40;6.60;99.90
19920;DHT22;10122;50.074;19.920;2024-02-21T05:42:06;6.50;99.90
19920;DHT22;10122;50.074;19.920;2024-02-21T05:44:32;6.40;99.90
19920;DHT22;10122;50.074;19.920;2024-02-21T05:46:58;6.40;99.90
19920;DHT22;10122;50.074;19.920;2024-02-21T05:49:23;6.40;99.90
19920;DHT22;10122;50.074;19.920;2024-02-21T05:51:49;6.40;99.90
19920;DHT22;10122;50.074;19.920;2024-02-21T05:54:15;6.30;99.90
19920;DHT22;10122;50.074;19.920;2024-02-21T05:56:44;6.30;99.90
19920;DHT22;10122;50.074;19.920;2024-02-21T05:59:11;6.30;99.90
19920;DHT22;10122;50.074;19.920;2024-02-21T06:01:36;6.30;99.90
19920;DHT22;10122;50.074;19.920;2024-02-21T06:04:02;6.40;99.90
19920;DHT22;10122;50.074;19.920;2024-02-21T06:06:28;6.30;99.90
19920;DHT22;10122;50.074;19.920;2024-02-21T06:08:53;6.40;99.90
19920;DHT22;10122;50.074;19.920;2024-02-21T06:11:19;6.40;99.90
19920;DHT22;10122;50.074;19.920;2024-02-21T06:13:45;6.40;99.90
19920;DHT22;10122;50.074;19.920;2024-02-21T06:16:10;6.40;99.90
19920;DHT22;10122;50.074;19.920;2024-02-21T06:18:36;6.50;99.90
19920;DHT22;10122;50.074;19.920;2024-02-21T06:21:03;6.60;99.90
19920;DHT22;10122;50.074;19.920;2024-02-21T06:23:29;6.60;99.90
19920;DHT22;10122;50.074;19.920;2024-02-21T06:25:55;6.70;99.90
19920;DHT22;10122;50.074;19.920;2024-02-21T06:28:20;6.60;99.90
19920;DHT22;10122;50.074;19.920;2024-02-21T06:30:46;6.50;99.90
19920;DHT22;10122;50.074;19.920;2024-02-21T06:33:12;6.50;99.90
19920;DHT22;10122;50.074;19.920;2024-02-21T06:35:38;6.50;99.90
19920;DHT22;10122;50.074;19.920;2024-02-21T06:38:06;6.50;99.90
19920;DHT22;10122;50.074;19.920;2024-02-21T06:40:33;6.50;99.90
19920;DHT22;10122;50.074;19.920;2024-02-21T06:43:04;6.60;99.90
19920;DHT22;10122;50.074;19.920;2024-02-21T06:45:30;6.70;99.90
19920;DHT22;10122;50.074;19.920;2024-02-21T06:47:56;6.80;99.90
19920;DHT22;10122;50.074;19.920;2024-02-21T06:50:21;6.90;99.90
19920;DHT22;10122;50.074;19.920;2024-02-21T06:52:47;6.90;99.90
19920;DHT22;10122;50.074;19.920;2024-02-21T06:55:13;6.90;99.90
19920;DHT22;10122;50.074;19.920;2024-02-21T06:57:38;7.00;99.90
19920;DHT22;10122;50.074;19.920;2024-02-21T07:00:04;7.00;99.90
19920;DHT22;10122;50.074;19.920;2024-02-21T07:02:33;7.00;99.90
19920;DHT22;10122;50.074;19.920;2024-02-21T07:04:59;7.00;99.90
19920;DHT22;10122;50.074;19.920;2024-02-21T07:07:25;7.00;99.90
19920;DHT22;10122;50.074;19.920;2024-02-21T07:09:51;7.00;99.90
19920;DHT22;10122;50.074;19.920;2024-02-21T07:12:18;7.10;99.90
19920;DHT22;10122;50.074;19.920;2024-02-21T07:14:44;7.20;99.90
19920;DHT22;10122;50.074;19.920;2024-02-21T07:17:10;7.50;99.90
19920;DHT22;10122;50.074;19.920;2024-02-21T07:19:36;7.70;99.90
19920;DHT22;10122;50.074;19.920;2024-02-21T07:22:02;7.90;99.90
19920;DHT22;10122;50.074;19.920;2024-02-21T07:24:28;8.10;99.90
19920;DHT22;10122;50.074;19.920;2024-02-21T07:26:54;8.20;99.90
19920;DHT22;10122;50.074;19.920;2024-02-21T07:29:19;8.30;99.90
19920;DHT22;10122;50.074;19.920;2024-02-21T07:31:45;8.50;99.90
19920;DHT22;10122;50.074;19.920;2024-02-21T07:34:11;8.60;99.90
19920;DHT22;10122;50.074;19.920;2024-02-21T07:36:37;8.90;99.90
19920;DHT22;10122;50.074;19.920;2024-02-21T07:39:04;9.10;99.90
19920;DHT22;10122;50.074;19.920;2024-02-21T07:41:32;9.40;99.90
19920;DHT22;10122;50.074;19.920;2024-02-21T07:44:00;9.60;99.90
19920;DHT22;10122;50.074;19.920;2024-02-21T07:46:25;9.80;99.90
19920;DHT22;10122;50.074;19.920;2024-02-21T07:48:51;10.00;99.90
19920;DHT22;10122;50.074;19.920;2024-02-21T07:51:17;10.20;99.90
19920;DHT22;10122;50.074;19.920;2024-02-21T07:53:44;10.60;99.90
19920;DHT22;10122;50.074;19.920;2024-02-21T07:56:17;11.00;99.90
19920;DHT22;10122;50.074;19.920;2024-02-21T07:58:42;11.60;99.90
19920;DHT22;10122;50.074;19.920;2024-02-21T08:01:08;12.10;99.90
19920;DHT22;10122;50.074;19.920;2024-02-21T08:03:34;12.50;99.90
19920;DHT22;10122;50.074;19.920;2024-02-21T08:06:01;12.80;99.90
19920;DHT22;10122;50.074;19.920;2024-02-21T08:08:27;13.10;99.90
19920;DHT22;10122;50.074;19.920;2024-02-21T08:10:52;13.30;99.90
19920;DHT22;10122;50.074;19.920;2024-02-21T08:13:18;13.50;99.90
19920;DHT22;10122;50.074;19.920;2024-02-21T08:15:44;13.50;99.90
19920;DHT22;10122;50.074;19.920;2024-02-21T08:18:10;13.60;99.90
19920;DHT22;10122;50.074;19.920;2024-02-21T08:20:37;13.50;99.90
19920;DHT22;10122;50.074;19.920;2024-02-21T08:23:03;13.30;99.90
19920;DHT22;10122;50.074;19.920;2024-02-21T08:25:28;13.20;99.90
19920;DHT22;10122;50.074;19.920;2024-02-21T08:27:58;12.90;99.90
19920;DHT22;10122;50.074;19.920;2024-02-21T08:30:23;12.60;99.90
19920;DHT22;10122;50.074;19.920;2024-02-21T08:32:49;12.50;99.90
19920;DHT22;10122;50.074;19.920;2024-02-21T08:35:15;12.30;99.90
19920;DHT22;10122;50.074;19.920;2024-02-21T08:37:44;12.10;99.90
19920;DHT22;10122;50.074;19.920;2024-02-21T08:40:10;11.90;99.90
19920;DHT22;10122;50.074;19.920;2024-02-21T08:42:36;12.00;99.90
19920;DHT22;10122;50.074;19.920;2024-02-21T08:45:03;12.10;99.90
19920;DHT22;10122;50.074;19.920;2024-02-21T08:47:29;12.10;99.90
19920;DHT22;10122;50.074;19.920;2024-02-21T08:49:54;12.10;99.90
19920;DHT22;10122;50.074;19.920;2024-02-21T08:52:20;12.20;99.90
19920;DHT22;10122;50.074;19.920;2024-02-21T08:54:46;12.10;99.90
19920;DHT22;10122;50.074;19.920;2024-02-21T08:57:12;12.10;99.90
19920;DHT22;10122;50.074;19.920;2024-02-21T08:59:39;12.20;99.90
19920;DHT22;10122;50.074;19.920;2024-02-21T09:02:05;12.20;99.90
19920;DHT22;10122;50.074;19.920;2024-02-21T09:04:32;12.40;99.90
19920;DHT22;10122;50.074;19.920;2024-02-21T09:06:59;12.80;99.90
19920;DHT22;10122;50.074;19.920;2024-02-21T09:09:25;13.10;99.90
19920;DHT22;10122;50.074;19.920;2024-02-21T09:11:50;13.30;99.90
19920;DHT22;10122;50.074;19.920;2024-02-21T09:14:17;13.40;99.90
19920;DHT22;10122;50.074;19.920;2024-02-21T09:16:42;13.50;99.90
19920;DHT22;10122;50.074;19.920;2024-02-21T09:19:09;13.50;99.90
19920;DHT22;10122;50.074;19.920;2024-02-21T09:21:37;13.40;99.90
19920;DHT22;10122;50.074;19.920;2024-02-21T09:24:04;13.30;99.90
19920;DHT22;10122;50.074;19.920;2024-02-21T09:26:30;13.30;99.90
19920;DHT22;10122;50.074;19.920;2024-02-21T09:28:56;13.30;99.90
19920;DHT22;10122;50.074;19.920;2024-02-21T09:31:21;13.40;99.90
19920;DHT22;10122;50.074;19.920;2024-02-21T09:33:47;13.60;99.90
19920;DHT22;10122;50.074;19.920;2024-02-21T09:36:14;13.90;99.90
19920;DHT22;10122;50.074;19.920;2024-02-21T09:38:40;14.20;99.90
19920;DHT22;10122;50.074;19.920;2024-02-21T09:41:17;14.40;99.90
19920;DHT22;10122;50.074;19.920;2024-02-21T09:43:43;14.60;99.90
19920;DHT22;10122;50.074;19.920;2024-02-21T09:46:17;14.70;99.90
19920;DHT22;10122;50.074;19.920;2024-02-21T09:51:33;14.80;99.90
19920;DHT22;10122;50.074;19.920;2024-02-21T09:54:00;14.80;99.90
19920;DHT22;10122;50.074;19.920;2024-02-21T09:56:26;14.70;99.90
19920;DHT22;10122;50.074;19.920;2024-02-21T09:58:51;14.70;99.90
19920;DHT22;10122;50.074;19.920;2024-02-21T10:01:17;14.80;99.90
19920;DHT22;10122;50.074;19.920;2024-02-21T10:03:43;14.90;99.90
19920;DHT22;10122;50.074;19.920;2024-02-21T10:06:11;14.90;99.90
19920;DHT22;10122;50.074;19.920;2024-02-21T10:08:37;14.80;99.90
19920;DHT22;10122;50.074;19.920;2024-02-21T10:11:03;14.80;99.90
19920;DHT22;10122;50.074;19.920;2024-02-21T10:13:29;14.70;99.90
19920;DHT22;10122;50.074;19.920;2024-02-21T10:16:05;14.70;99.90
19920;DHT22;10122;50.074;19.920;2024-02-21T10:18:31;14.60;99.90
19920;DHT22;10122;50.074;19.920;2024-02-21T10:21:07;14.60;99.90
19920;DHT22;10122;50.074;19.920;2024-02-21T10:23:50;14.50;99.90
19920;DHT22;10122;50.074;19.920;2024-02-21T10:26:18;14.40;99.90
19920;DHT22;10122;50.074;19.920;2024-02-21T10:28:44;14.30;99.90
19920;DHT22;10122;50.074;19.920;2024-02-21T10:31:20;14.20;99.90
19920;DHT22;10122;50.074;19.920;2024-02-21T10:33:56;14.10;99.90
19920;DHT22;10122;50.074;19.920;2024-02-21T10:36:22;14.20;99.90
19920;DHT22;10122;50.074;19.920;2024-02-21T10:38:50;14.20;99.90
19920;DHT22;10122;50.074;19.920;2024-02-21T10:41:16;14.20;99.90
19920;DHT22;10122;50.074;19.920;2024-02-21T10:43:49;14.30;99.90
19920;DHT22;10122;50.074;19.920;2024-02-21T10:46:19;14.40;99.90
19920;DHT22;10122;50.074;19.920;2024-02-21T10:48:45;14.40;99.90
19920;DHT22;10122;50.074;19.920;2024-02-21T10:53:57;14.80;99.90
19920;DHT22;10122;50.074;19.920;2024-02-21T10:56:31;14.90;99.90
19920;DHT22;10122;50.074;19.920;2024-02-21T10:59:02;15.10;99.90
19920;DHT22;10122;50.074;19.920;2024-02-21T11:01:29;15.20;99.90
19920;DHT22;10122;50.074;19.920;2024-02-21T11:04:02;15.30;99.90
19920;DHT22;10122;50.074;19.920;2024-02-21T11:06:29;15.30;99.90
19920;DHT22;10122;50.074;19.920;2024-02-21T11:09:05;15.20;99.90
19920;DHT22;10122;50.074;19.920;2024-02-21T11:11:35;15.10;99.90
19920;DHT22;10122;50.074;19.920;2024-02-21T11:14:10;15.00;99.90
19920;DHT22;10122;50.074;19.920;2024-02-21T11:16:41;14.90;99.90
19920;DHT22;10122;50.074;19.920;2024-02-21T11:19:09;14.70;99.90
19920;DHT22;10122;50.074;19.920;2024-02-21T11:21:37;14.60;99.90
19920;DHT22;10122;50.074;19.920;2024-02-21T11:24:03;14.40;99.90
19920;DHT22;10122;50.074;19.920;2024-02-21T11:26:30;14.30;99.90
19920;DHT22;10122;50.074;19.920;2024-02-21T11:29:00;14.20;99.90
19920;DHT22;10122;50.074;19.920;2024-02-21T11:31:26;14.20;99.90
19920;DHT22;10122;50.074;19.920;2024-02-21T11:33:57;14.20;99.90
19920;DHT22;10122;50.074;19.920;2024-02-21T11:36:27;14.20;99.90
19920;DHT22;10122;50.074;19.920;2024-02-21T11:38:53;14.10;99.90
19920;DHT22;10122;50.074;19.920;2024-02-21T11:41:19;14.10;99.90
19920;DHT22;10122;50.074;19.920;2024-02-21T11:43:49;14.10;99.90
19920;DHT22;10122;50.074;19.920;2024-02-21T11:46:15;14.10;99.90
19920;DHT22;10122;50.074;19.920;2024-02-21T11:48:41;14.00;99.90
19920;DHT22;10122;50.074;19.920;2024-02-21T11:51:21;13.90;99.90
19920;DHT22;10122;50.074;19.920;2024-02-21T11:53:47;13.80;99.90
19920;DHT22;10122;50.074;19.920;2024-02-21T11:56:14;13.70;99.90
19920;DHT22;10122;50.074;19.920;2024-02-21T11:58:39;13.60;99.90
19920;DHT22;10122;50.074;19.920;2024-02-21T12:01:05;13.50;99.90
19920;DHT22;10122;50.074;19.920;2024-02-21T12:03:32;13.50;99.90
19920;DHT22;10122;50.074;19.920;2024-02-21T12:06:01;13.40;99.90
19920;DHT22;10122;50.074;19.920;2024-02-21T12:08:49;13.40;99.90
19920;DHT22;10122;50.074;19.920;2024-02-21T12:11:22;13.30;99.90
19920;DHT22;10122;50.074;19.920;2024-02-21T12:13:58;13.30;99.90
19920;DHT22;10122;50.074;19.920;2024-02-21T12:16:27;13.30;99.90
19920;DHT22;10122;50.074;19.920;2024-02-21T12:18:54;13.30;99.90
19920;DHT22;10122;50.074;19.920;2024-02-21T12:21:24;13.30;99.90
19920;DHT22;10122;50.074;19.920;2024-02-21T12:23:50;13.30;99.90
19920;DHT22;10122;50.074;19.920;2024-02-21T12:26:15;13.30;99.90
19920;DHT22;10122;50.074;19.920;2024-02-21T12:28:41;13.30;99.90
19920;DHT22;10122;50.074;19.920;2024-02-21T12:31:07;13.20;99.90
19920;DHT22;10122;50.074;19.920;2024-02-21T12:33:32;13.20;99.90
19920;DHT22;10122;50.074;19.920;2024-02-21T12:35:58;13.30;99.90
19920;DHT22;10122;50.074;19.920;2024-02-21T12:38:24;13.30;99.90
19920;DHT22;10122;50.074;19.920;2024-02-21T12:40:50;13.30;99.90
19920;DHT22;10122;50.074;19.920;2024-02-21T12:43:15;13.30;99.90
19920;DHT22;10122;50.074;19.920;2024-02-21T12:45:41;13.30;99.90
19920;DHT22;10122;50.074;19.920;2024-02-21T12:48:07;13.20;99.90
19920;DHT22;10122;50.074;19.920;2024-02-21T12:50:32;13.20;99.90
19920;DHT22;10122;50.074;19.920;2024-02-21T12:52:58;13.20;99.90
19920;DHT22;10122;50.074;19.920;2024-02-21T12:55:24;13.20;99.90
19920;DHT22;10122;50.074;19.920;2024-02-21T12:57:50;13.20;99.90
19920;DHT22;10122;50.074;19.920;2024-02-21T13:00:16;13.20;99.90
19920;DHT22;10122;50.074;19.920;2024-02-21T13:02:42;13.10;99.90
19920;DHT22;10122;50.074;19.920;2024-02-21T13:05:08;13.00;99.90
19920;DHT22;10122;50.074;19.920;2024-02-21T13:07:34;13.00;99.90
19920;DHT22;10122;50.074;19.920;2024-02-21T13:10:00;12.90;99.90
19920;DHT22;10122;50.074;19.920;2024-02-21T13:12:25;12.80;99.90
19920;DHT22;10122;50.074;19.920;2024-02-21T13:14:55;12.80;99.90
19920;DHT22;10122;50.074;19.920;2024-02-21T13:17:21;12.70;99.90
19920;DHT22;10122;50.074;19.920;2024-02-21T13:19:47;12.70;99.90
19920;DHT22;10122;50.074;19.920;2024-02-21T13:22:13;12.60;99.90
19920;DHT22;10122;50.074;19.920;2024-02-21T13:24:39;12.50;99.90
19920;DHT22;10122;50.074;19.920;2024-02-21T13:27:04;12.50;99.90
19920;DHT22;10122;50.074;19.920;2024-02-21T13:29:34;12.40;99.90
19920;DHT22;10122;50.074;19.920;2024-02-21T13:32:00;12.30;99.90
19920;DHT22;10122;50.074;19.920;2024-02-21T13:34:25;12.20;99.90
19920;DHT22;10122;50.074;19.920;2024-02-21T13:36:51;12.20;99.90
19920;DHT22;10122;50.074;19.920;2024-02-21T13:39:17;12.20;99.90
19920;DHT22;10122;50.074;19.920;2024-02-21T13:41:44;12.20;99.90
19920;DHT22;10122;50.074;19.920;2024-02-21T13:44:10;12.20;99.90
19920;DHT22;10122;50.074;19.920;2024-02-21T13:46:36;12.20;99.90
19920;DHT22;10122;50.074;19.920;2024-02-21T13:49:05;12.30;99.90
19920;DHT22;10122;50.074;19.920;2024-02-21T13:51:36;12.30;99.90
19920;DHT22;10122;50.074;19.920;2024-02-21T13:54:05;12.30;99.90
19920;DHT22;10122;50.074;19.920;2024-02-21T13:56:34;12.30;99.90
19920;DHT22;10122;50.074;19.920;2024-02-21T13:59:00;12.20;99.90
19920;DHT22;10122;50.074;19.920;2024-02-21T14:01:26;12.10;99.90
19920;DHT22;10122;50.074;19.920;2024-02-21T14:03:53;12.00;99.90
19920;DHT22;10122;50.074;19.920;2024-02-21T14:06:19;12.00;99.90
19920;DHT22;10122;50.074;19.920;2024-02-21T14:08:45;12.00;99.90
19920;DHT22;10122;50.074;19.920;2024-02-21T14:11:11;11.90;99.90
19920;DHT22;10122;50.074;19.920;2024-02-21T14:13:36;11.90;99.90
19920;DHT22;10122;50.074;19.920;2024-02-21T14:16:02;11.90;99.90
19920;DHT22;10122;50.074;19.920;2024-02-21T14:18:28;11.80;99.90
19920;DHT22;10122;50.074;19.920;2024-02-21T14:20:54;11.80;99.90
19920;DHT22;10122;50.074;19.920;2024-02-21T14:23:20;11.70;99.90
19920;DHT22;10122;50.074;19.920;2024-02-21T14:25:46;11.60;99.90
19920;DHT22;10122;50.074;19.920;2024-02-21T14:28:12;11.60;99.90
19920;DHT22;10122;50.074;19.920;2024-02-21T14:30:38;11.50;99.90
19920;DHT22;10122;50.074;19.920;2024-02-21T14:33:03;11.50;99.90
19920;DHT22;10122;50.074;19.920;2024-02-21T14:35:29;11.50;99.90
19920;DHT22;10122;50.074;19.920;2024-02-21T14:37:55;11.40;99.90
19920;DHT22;10122;50.074;19.920;2024-02-21T14:40:23;11.30;99.90
19920;DHT22;10122;50.074;19.920;2024-02-21T14:42:49;11.20;99.90
19920;DHT22;10122;50.074;19.920;2024-02-21T14:45:15;11.20;99.90
19920;DHT22;10122;50.074;19.920;2024-02-21T14:47:40;11.20;99.90
19920;DHT22;10122;50.074;19.920;2024-02-21T14:50:06;11.30;99.90
19920;DHT22;10122;50.074;19.920;2024-02-21T14:52:32;11.30;99.90
19920;DHT22;10122;50.074;19.920;2024-02-21T14:54:58;11.20;99.90
19920;DHT22;10122;50.074;19.920;2024-02-21T14:57:25;11.20;99.90
19920;DHT22;10122;50.074;19.920;2024-02-21T14:59:50;11.20;99.90
19920;DHT22;10122;50.074;19.920;2024-02-21T15:02:22;11.20;99.90
19920;DHT22;10122;50.074;19.920;2024-02-21T15:04:48;11.20;99.90
19920;DHT22;10122;50.074;19.920;2024-02-21T15:07:14;11.10;99.90
19920;DHT22;10122;50.074;19.920;2024-02-21T15:09:40;11.10;99.90
19920;DHT22;10122;50.074;19.920;2024-02-21T15:12:06;11.10;99.90
19920;DHT22;10122;50.074;19.920;2024-02-21T15:14:31;11.10;99.90
19920;DHT22;10122;50.074;19.920;2024-02-21T15:16:57;11.00;99.90
19920;DHT22;10122;50.074;19.920;2024-02-21T15:19:23;11.00;99.90
19920;DHT22;10122;50.074;19.920;2024-02-21T15:21:49;10.90;99.90
19920;DHT22;10122;50.074;19.920;2024-02-21T15:24:15;10.90;99.90